createdAt,value
2018-10-19T00:00:19.525Z,95.08
2018-10-19T00:01:29.474Z,95.27
2018-10-19T00:02:39.162Z,95.46
2018-10-19T00:03:48.611Z,95.84
2018-10-19T00:04:58.350Z,95.94
2018-10-19T00:06:08.184Z,95.94
2018-10-19T00:07:17.888Z,96.03
2018-10-19T00:08:27.867Z,96.13
2018-10-19T00:09:37.829Z,96.03
2018-10-19T00:10:47.521Z,96.8
2018-10-19T00:11:57.236Z,96.7
2018-10-19T00:13:07.188Z,96.51
2018-10-19T00:14:17.140Z,96.51
2018-10-19T00:15:26.841Z,97.17
2018-10-19T00:16:36.780Z,97.46
2018-10-19T00:17:46.747Z,97.85
2018-10-19T00:18:56.434Z,97.85
2018-10-19T00:20:06.382Z,97.56
2018-10-19T00:21:16.514Z,97.66
2018-10-19T00:22:26.216Z,97.75
2018-10-19T00:23:35.916Z,97.94
2018-10-19T00:24:45.621Z,98.51
2018-10-19T00:25:55.058Z,98.7
2018-10-19T00:27:05.153Z,98.03
2018-10-19T00:28:15.451Z,98.03
2018-10-19T00:29:25.139Z,98.32
2018-10-19T00:30:34.834Z,98.61
2018-10-19T00:31:44.792Z,98.8
2018-10-19T00:32:54.794Z,98.9
2018-10-19T00:34:04.972Z,98.9
2018-10-19T00:35:15.167Z,99.37
2018-10-19T00:36:25.233Z,98.85
2018-10-19T00:37:35.255Z,99.51
2018-10-19T00:38:45.195Z,99.85
2018-10-19T00:39:54.897Z,99.99
2018-10-19T00:41:04.989Z,99.99
2018-10-19T00:42:15.433Z,99.99
2018-10-19T00:43:25.124Z,99.99
2018-10-19T00:44:35.076Z,99.99
2018-10-19T00:45:45.027Z,99.99
2018-10-19T00:46:54.786Z,99.99
2018-10-19T00:48:04.730Z,99.99
2018-10-19T00:49:14.415Z,99.99
2018-10-19T00:50:24.112Z,99.99
2018-10-19T00:51:34.068Z,99.99
2018-10-19T00:52:44.029Z,99.99
2018-10-19T00:53:53.460Z,99.99
2018-10-19T00:55:03.430Z,99.99
2018-10-19T00:56:13.380Z,99.99
2018-10-19T00:57:23.068Z,99.99
2018-10-19T00:58:33.014Z,99.99
2018-10-19T00:59:42.974Z,99.99
2018-10-19T01:00:52.914Z,99.99
2018-10-19T01:02:02.891Z,99.99
2018-10-19T01:03:12.859Z,99.99
2018-10-19T01:04:22.892Z,99.99
2018-10-19T01:05:32.841Z,99.99
2018-10-19T01:06:42.798Z,99.99
2018-10-19T01:07:52.739Z,99.99
2018-10-19T01:09:02.721Z,99.99
2018-10-19T01:10:13.119Z,99.99
2018-10-19T01:11:22.551Z,99.99
2018-10-19T01:12:32.513Z,99.99
2018-10-19T01:13:42.479Z,99.99
2018-10-19T01:14:52.428Z,99.99
2018-10-19T01:16:02.461Z,99.99
2018-10-19T01:17:12.578Z,99.99
2018-10-19T01:18:22.587Z,99.99
2018-10-19T01:19:32.277Z,99.99
2018-10-19T01:20:42.230Z,99.99
2018-10-19T01:21:51.924Z,99.99
2018-10-19T01:23:01.734Z,99.99
2018-10-19T01:24:11.624Z,99.99
2018-10-19T01:25:21.564Z,99.99
2018-10-19T01:26:31.506Z,99.99
2018-10-19T01:27:41.193Z,99.99
2018-10-19T01:28:51.184Z,99.99
2018-10-19T01:30:00.962Z,99.99
2018-10-19T01:31:10.909Z,99.99
2018-10-19T01:32:20.341Z,99.99
2018-10-19T01:33:30.292Z,99.99
2018-10-19T01:34:39.977Z,99.99
2018-10-19T01:35:49.908Z,99.99
2018-10-19T01:36:59.591Z,99.99
2018-10-19T01:38:09.306Z,99.99
2018-10-19T01:39:19.000Z,99.99
2018-10-19T01:40:28.944Z,99.99
2018-10-19T01:41:38.890Z,99.99
2018-10-19T01:42:48.575Z,99.99
2018-10-19T01:43:58.278Z,99.99
2018-10-19T01:45:08.372Z,99.99
2018-10-19T01:46:18.708Z,99.99
2018-10-19T01:47:28.654Z,99.99
2018-10-19T01:48:38.346Z,99.99
2018-10-19T01:49:48.031Z,99.99
2018-10-19T01:50:58.076Z,99.99
2018-10-19T01:52:08.198Z,99.99
2018-10-19T01:53:18.218Z,99.99
2018-10-19T01:54:28.164Z,99.99
2018-10-19T01:55:38.107Z,99.99
2018-10-19T01:56:48.049Z,99.99
2018-10-19T01:57:57.857Z,99.99
2018-10-19T01:59:07.921Z,99.99
2018-10-19T02:00:18.350Z,99.99
2018-10-19T02:01:27.776Z,99.99
2018-10-19T02:02:37.741Z,99.99
2018-10-19T02:03:47.676Z,99.99
2018-10-19T02:04:57.202Z,99.99
2018-10-19T02:06:07.379Z,99.99
2018-10-19T02:07:17.562Z,99.99
2018-10-19T02:08:27.496Z,99.99
2018-10-19T02:09:37.444Z,99.99
2018-10-19T02:10:47.400Z,99.99
2018-10-19T02:11:57.403Z,99.99
2018-10-19T02:13:07.109Z,99.99
2018-10-19T02:14:16.793Z,99.99
2018-10-19T02:15:26.739Z,99.99
2018-10-19T02:16:36.446Z,99.99
2018-10-19T02:17:46.415Z,99.99
2018-10-19T02:18:56.352Z,99.99
2018-10-19T02:20:06.047Z,99.99
2018-10-19T02:21:16.076Z,99.99
2018-10-19T02:22:26.022Z,99.99
2018-10-19T02:23:35.710Z,99.99
2018-10-19T02:24:45.663Z,99.99
2018-10-19T02:25:55.612Z,99.99
2018-10-19T02:27:05.463Z,99.99
2018-10-19T02:28:15.542Z,99.99
2018-10-19T02:29:25.495Z,99.99
2018-10-19T02:30:35.480Z,99.99
2018-10-19T02:31:45.435Z,99.99
2018-10-19T02:32:55.161Z,99.99
2018-10-19T02:34:04.972Z,99.99
2018-10-19T02:35:15.091Z,99.99
2018-10-19T02:36:25.286Z,99.99
2018-10-19T02:37:35.227Z,99.99
2018-10-19T02:38:45.183Z,99.99
2018-10-19T02:39:54.882Z,99.99
2018-10-19T02:41:04.948Z,99.99
2018-10-19T02:42:15.240Z,99.99
2018-10-19T02:43:25.182Z,99.99
2018-10-19T02:44:35.139Z,99.99
2018-10-19T02:45:45.065Z,99.99
2018-10-19T02:46:55.093Z,99.99
2018-10-19T02:48:05.245Z,99.99
2018-10-19T02:49:15.219Z,99.99
2018-10-19T02:50:25.171Z,99.99
2018-10-19T02:51:35.124Z,99.99
2018-10-19T02:52:44.803Z,99.99
2018-10-19T02:53:54.773Z,99.99
2018-10-19T02:55:04.714Z,99.99
2018-10-19T02:56:14.669Z,99.99
2018-10-19T02:57:24.111Z,99.99
2018-10-19T02:58:33.539Z,99.99
2018-10-19T02:59:43.481Z,99.99
2018-10-19T03:00:53.428Z,99.99
2018-10-19T03:02:03.373Z,99.99
2018-10-19T03:03:13.526Z,99.99
2018-10-19T03:04:23.468Z,99.99
2018-10-19T03:05:33.417Z,99.99
2018-10-19T03:06:42.859Z,99.99
2018-10-19T03:07:52.566Z,99.99
2018-10-19T03:09:02.678Z,99.99
2018-10-19T03:10:13.109Z,99.99
2018-10-19T03:11:23.182Z,99.99
2018-10-19T03:12:33.357Z,99.99
2018-10-19T03:13:43.055Z,99.99
2018-10-19T03:14:53.014Z,99.99
2018-10-19T03:16:02.813Z,99.99
2018-10-19T03:17:12.785Z,99.99
2018-10-19T03:18:22.984Z,99.99
2018-10-19T03:19:32.949Z,99.99
2018-10-19T03:20:42.638Z,99.99
2018-10-19T03:21:52.604Z,99.99
2018-10-19T03:23:02.709Z,99.99
2018-10-19T03:24:12.991Z,99.99
2018-10-19T03:25:22.784Z,99.99
2018-10-19T03:26:32.890Z,99.99
2018-10-19T03:27:42.589Z,99.99
2018-10-19T03:28:52.365Z,99.99
2018-10-19T03:30:02.423Z,99.99
2018-10-19T03:31:12.612Z,99.99
2018-10-19T03:32:23.138Z,99.99
2018-10-19T03:33:32.837Z,99.99
2018-10-19T03:34:42.800Z,99.99
2018-10-19T03:35:52.747Z,99.99
2018-10-19T03:37:02.684Z,99.99
2018-10-19T03:38:12.639Z,99.99
2018-10-19T03:39:22.621Z,99.99
2018-10-19T03:40:32.310Z,99.99
2018-10-19T03:41:42.261Z,99.99
2018-10-19T03:42:52.217Z,99.99
2018-10-19T03:44:02.166Z,99.99
2018-10-19T03:45:12.184Z,99.99
2018-10-19T03:46:22.509Z,99.99
2018-10-19T03:47:32.209Z,99.99
2018-10-19T03:48:41.930Z,99.99
2018-10-19T03:49:51.873Z,99.99
2018-10-19T03:51:01.952Z,99.99
2018-10-19T03:52:12.202Z,99.99
2018-10-19T03:53:22.047Z,99.99
2018-10-19T03:54:31.986Z,99.99
2018-10-19T03:55:41.933Z,99.99
2018-10-19T03:56:51.889Z,99.99
2018-10-19T03:58:01.966Z,99.99
2018-10-19T03:59:11.826Z,99.99
2018-10-19T04:00:22.141Z,99.99
2018-10-19T04:01:32.084Z,99.99
2018-10-19T04:02:41.787Z,99.99
2018-10-19T04:03:51.728Z,99.99
2018-10-19T04:05:01.210Z,99.99
2018-10-19T04:06:11.601Z,99.99
2018-10-19T04:07:21.550Z,99.99
2018-10-19T04:08:31.503Z,99.99
2018-10-19T04:09:41.454Z,99.99
2018-10-19T04:10:51.387Z,99.99
2018-10-19T04:12:01.479Z,99.99
2018-10-19T04:13:11.432Z,99.99
2018-10-19T04:14:21.403Z,99.99
2018-10-19T04:15:31.357Z,99.99
2018-10-19T04:16:41.306Z,99.99
2018-10-19T04:17:50.988Z,99.99
2018-10-19T04:19:00.692Z,99.99
2018-10-19T04:20:10.378Z,99.99
2018-10-19T04:21:20.165Z,99.99
2018-10-19T04:22:30.231Z,99.99
2018-10-19T04:23:39.938Z,99.99
2018-10-19T04:24:49.881Z,99.99
2018-10-19T04:25:59.817Z,99.99
2018-10-19T04:27:10.059Z,99.99
2018-10-19T04:28:20.678Z,99.99
2018-10-19T04:29:30.633Z,99.99
2018-10-19T04:30:40.577Z,99.99
2018-10-19T04:31:50.267Z,99.99
2018-10-19T04:33:00.104Z,99.99
2018-10-19T04:34:10.583Z,99.99
2018-10-19T04:35:20.531Z,99.99
2018-10-19T04:36:30.236Z,99.99
2018-10-19T04:37:40.183Z,99.99
2018-10-19T04:38:49.903Z,99.99
2018-10-19T04:40:00.061Z,99.99
2018-10-19T04:41:10.178Z,99.99
2018-10-19T04:42:21.142Z,99.99
2018-10-19T04:43:31.219Z,99.99
2018-10-19T04:44:41.172Z,99.99
2018-10-19T04:45:51.138Z,99.99
2018-10-19T04:47:01.167Z,99.99
2018-10-19T04:48:10.848Z,99.99
2018-10-19T04:49:20.539Z,99.99
2018-10-19T04:50:30.486Z,99.99
2018-10-19T04:51:40.492Z,99.99
2018-10-19T04:52:50.195Z,99.99
2018-10-19T04:54:00.278Z,99.99
2018-10-19T04:55:10.302Z,99.99
2018-10-19T04:56:20.288Z,99.99
2018-10-19T04:57:30.251Z,99.99
2018-10-19T04:58:39.942Z,99.99
2018-10-19T04:59:49.410Z,99.99
2018-10-19T05:00:59.376Z,99.99
2018-10-19T05:02:09.328Z,99.99
2018-10-19T05:03:19.024Z,99.99
2018-10-19T05:04:29.031Z,99.99
2018-10-19T05:05:39.457Z,99.99
2018-10-19T05:06:49.659Z,99.99
2018-10-19T05:07:59.825Z,99.99
2018-10-19T05:09:09.727Z,99.99
2018-10-19T05:10:19.426Z,99.99
2018-10-19T05:11:29.396Z,99.99
2018-10-19T05:12:39.592Z,99.99
2018-10-19T05:13:49.897Z,99.99
2018-10-19T05:14:59.993Z,99.99
2018-10-19T05:16:09.953Z,99.99
2018-10-19T05:17:20.036Z,99.99
2018-10-19T05:18:29.725Z,99.99
2018-10-19T05:19:39.429Z,99.99
2018-10-19T05:20:49.108Z,99.99
2018-10-19T05:21:59.065Z,99.99
2018-10-19T05:23:09.181Z,99.99
2018-10-19T05:24:19.607Z,99.99
2018-10-19T05:25:29.605Z,99.99
2018-10-19T05:26:39.567Z,99.99
2018-10-19T05:27:49.274Z,99.99
2018-10-19T05:28:59.093Z,99.99
2018-10-19T05:30:09.370Z,99.99
2018-10-19T05:31:19.113Z,99.99
2018-10-19T05:32:29.056Z,99.99
2018-10-19T05:33:39.041Z,99.99
2018-10-19T05:34:48.745Z,99.99
2018-10-19T05:35:58.783Z,99.99
2018-10-19T05:37:08.761Z,99.99
2018-10-19T05:38:18.449Z,99.99
2018-10-19T05:39:28.160Z,99.99
2018-10-19T05:40:37.870Z,99.99
2018-10-19T05:41:47.575Z,99.99
2018-10-19T05:42:57.300Z,99.99
2018-10-19T05:44:07.134Z,99.99
2018-10-19T05:45:17.542Z,99.99
2018-10-19T05:46:27.489Z,99.99
2018-10-19T05:47:37.449Z,99.99
2018-10-19T05:48:47.404Z,99.99
2018-10-19T05:49:57.187Z,99.99
2018-10-19T05:51:07.411Z,99.99
2018-10-19T05:52:17.484Z,99.99
2018-10-19T05:53:27.190Z,99.99
2018-10-19T05:54:37.137Z,99.99
2018-10-19T05:55:47.135Z,99.99
2018-10-19T05:56:56.874Z,99.99
2018-10-19T05:58:06.830Z,99.99
2018-10-19T05:59:16.954Z,99.99
2018-10-19T06:00:26.995Z,99.99
2018-10-19T06:01:36.694Z,99.99
2018-10-19T06:02:46.794Z,99.99
2018-10-19T06:03:56.778Z,99.99
2018-10-19T06:05:06.656Z,99.99
2018-10-19T06:06:16.875Z,99.99
2018-10-19T06:07:26.576Z,99.99
2018-10-19T06:08:36.485Z,99.99
2018-10-19T06:09:46.202Z,99.99
2018-10-19T06:10:55.923Z,99.99
2018-10-19T06:12:06.065Z,99.99
2018-10-19T06:13:16.028Z,99.99
2018-10-19T06:14:25.985Z,99.99
2018-10-19T06:15:35.981Z,99.99
2018-10-19T06:16:45.941Z,99.99
2018-10-19T06:17:55.966Z,99.99
2018-10-19T06:19:05.665Z,99.99
2018-10-19T06:20:15.836Z,99.99
2018-10-19T06:21:25.878Z,99.99
2018-10-19T06:22:35.059Z,99.99
2018-10-19T06:23:44.765Z,99.99
2018-10-19T06:24:54.756Z,99.99
2018-10-19T06:26:04.998Z,99.99
2018-10-19T06:27:15.769Z,99.99
2018-10-19T06:28:25.755Z,99.99
2018-10-19T06:29:35.721Z,99.99
2018-10-19T06:30:45.685Z,99.99
2018-10-19T06:31:55.441Z,99.99
2018-10-19T06:33:05.601Z,99.99
2018-10-19T06:34:15.299Z,99.99
2018-10-19T06:35:25.002Z,99.99
2018-10-19T06:36:34.725Z,99.99
2018-10-19T06:37:44.188Z,99.99
2018-10-19T06:38:53.625Z,99.99
2018-10-19T06:40:03.646Z,99.99
2018-10-19T06:41:13.919Z,99.99
2018-10-19T06:42:23.777Z,99.99
2018-10-19T06:43:33.747Z,99.99
2018-10-19T06:44:43.457Z,99.99
2018-10-19T06:45:53.409Z,99.99
2018-10-19T06:47:03.501Z,99.99
2018-10-19T06:48:14.121Z,99.99
2018-10-19T06:49:23.543Z,99.99
2018-10-19T06:50:33.556Z,99.99
2018-10-19T06:51:42.995Z,99.99
2018-10-19T06:52:52.975Z,99.99
2018-10-19T06:54:02.754Z,99.99
2018-10-19T06:55:12.194Z,99.99
2018-10-19T06:56:21.902Z,99.99
2018-10-19T06:57:31.914Z,99.99
2018-10-19T06:58:41.616Z,99.99
2018-10-19T06:59:51.380Z,99.99
2018-10-19T07:01:01.117Z,99.99
2018-10-19T07:02:11.284Z,99.99
2018-10-19T07:03:21.376Z,99.99
2018-10-19T07:04:31.092Z,99.99
2018-10-19T07:05:40.970Z,99.99
2018-10-19T07:06:51.153Z,99.99
2018-10-19T07:08:01.058Z,99.99
2018-10-19T07:09:11.668Z,99.99
2018-10-19T07:10:21.660Z,99.99
2018-10-19T07:11:31.624Z,99.99
2018-10-19T07:12:41.367Z,99.99
2018-10-19T07:13:51.318Z,99.99
2018-10-19T07:15:01.050Z,99.99
2018-10-19T07:16:10.485Z,99.99
2018-10-19T07:17:20.448Z,99.99
2018-10-19T07:18:30.414Z,99.99
2018-10-19T07:19:40.378Z,99.99
2018-10-19T07:20:50.332Z,99.99
2018-10-19T07:22:00.284Z,99.99
2018-10-19T07:23:10.471Z,99.99
2018-10-19T07:24:20.594Z,99.99
2018-10-19T07:25:30.325Z,99.99
2018-10-19T07:26:40.335Z,99.99
2018-10-19T07:27:49.814Z,99.99
2018-10-19T07:28:59.579Z,99.99
2018-10-19T07:30:09.768Z,99.99
2018-10-19T07:31:19.731Z,99.99
2018-10-19T07:32:29.699Z,99.99
2018-10-19T07:33:39.680Z,99.99
2018-10-19T07:34:49.388Z,99.99
2018-10-19T07:35:59.386Z,99.99
2018-10-19T07:37:09.095Z,99.99
2018-10-19T07:38:19.253Z,99.99
2018-10-19T07:39:29.010Z,99.99
2018-10-19T07:40:38.970Z,99.99
2018-10-19T07:41:48.963Z,99.99
2018-10-19T07:42:59.123Z,99.99
2018-10-19T07:44:09.365Z,99.99
2018-10-19T07:45:19.624Z,99.99
2018-10-19T07:46:29.572Z,99.99
2018-10-19T07:47:39.728Z,99.99
2018-10-19T07:48:50.423Z,99.99
2018-10-19T07:49:59.938Z,99.99
2018-10-19T07:51:09.463Z,99.99
2018-10-19T07:52:19.437Z,99.99
2018-10-19T07:53:29.446Z,99.99
2018-10-19T07:54:39.517Z,99.99
2018-10-19T07:55:49.504Z,99.99
2018-10-19T07:56:59.285Z,99.99
2018-10-19T07:58:09.266Z,99.99
2018-10-19T07:59:19.218Z,99.99
2018-10-19T08:00:29.241Z,99.99
2018-10-19T08:01:39.487Z,99.99
2018-10-19T08:02:48.933Z,99.99
2018-10-19T08:03:58.941Z,99.99
2018-10-19T08:05:08.827Z,99.99
2018-10-19T08:06:19.020Z,99.99
2018-10-19T08:07:28.995Z,99.99
2018-10-19T08:08:38.717Z,99.99
2018-10-19T08:09:48.743Z,99.99
2018-10-19T08:10:58.600Z,99.99
2018-10-19T08:12:08.836Z,99.99
2018-10-19T08:13:18.795Z,99.99
2018-10-19T08:14:28.747Z,99.99
2018-10-19T08:15:38.712Z,99.99
2018-10-19T08:16:48.669Z,99.99
2018-10-19T08:17:58.421Z,99.99
2018-10-19T08:19:08.424Z,99.99
2018-10-19T08:20:18.487Z,99.99
2018-10-19T08:21:28.460Z,99.99
2018-10-19T08:22:38.432Z,99.99
2018-10-19T08:23:48.391Z,99.99
2018-10-19T08:24:58.356Z,99.99
2018-10-19T08:26:08.545Z,99.99
2018-10-19T08:27:18.616Z,99.99
2018-10-19T08:28:29.196Z,99.99
2018-10-19T08:29:38.903Z,99.95
2018-10-19T08:30:48.594Z,99.75
2018-10-19T08:31:58.327Z,99.37
2018-10-19T08:33:08.363Z,99.27
2018-10-19T08:34:18.335Z,98.22
2018-10-19T08:35:28.301Z,98.51
2018-10-19T08:36:38.281Z,98.51
2018-10-19T08:37:48.240Z,98.32
2018-10-19T08:38:58.201Z,97.85
2018-10-19T08:40:08.197Z,97.85
2018-10-19T08:41:18.365Z,97.66
2018-10-19T08:42:28.633Z,97.46
2018-10-19T08:43:38.589Z,97.75
2018-10-19T08:44:48.552Z,97.42
2018-10-19T08:45:58.391Z,96.75
2018-10-19T08:47:08.522Z,96.66
2018-10-19T08:48:18.876Z,95.12
2018-10-19T08:49:28.838Z,95.32
2018-10-19T08:50:38.795Z,95.22
2018-10-19T08:51:48.736Z,94.84
2018-10-19T08:52:58.447Z,94.56
2018-10-19T08:54:08.633Z,94.56
2018-10-19T08:55:18.357Z,94.36
2018-10-19T08:56:28.366Z,93.46
2018-10-19T08:57:38.111Z,93.46
2018-10-19T08:58:48.072Z,93.17
2018-10-19T08:59:57.941Z,92.79
2018-10-19T09:01:08.115Z,92.31
2018-10-19T09:02:18.089Z,92.12
2018-10-19T09:03:28.156Z,91.55
2018-10-19T09:04:38.640Z,91.55
2018-10-19T09:05:48.594Z,91.07
2018-10-19T09:06:58.037Z,91.07
2018-10-19T09:08:08.006Z,91.16
2018-10-19T09:09:17.909Z,91.55
2018-10-19T09:10:27.881Z,92.41
2018-10-19T09:11:37.375Z,90.78
2018-10-19T09:12:47.865Z,90.59
2018-10-19T09:13:58.366Z,90.11
2018-10-19T09:15:08.431Z,89.83
2018-10-19T09:16:18.871Z,89.78
2018-10-19T09:17:28.869Z,89.3
2018-10-19T09:18:38.505Z,88.44
2018-10-19T09:19:48.528Z,88.82
2018-10-19T09:20:57.997Z,88.15
2018-10-19T09:22:08.253Z,88.73
2018-10-19T09:23:18.302Z,88.29
2018-10-19T09:24:28.045Z,87.24
2018-10-19T09:25:38.006Z,86.76
2018-10-19T09:26:47.722Z,86.96
2018-10-19T09:27:57.813Z,86.76
2018-10-19T09:29:07.462Z,85.62
2018-10-19T09:30:17.236Z,85.57
2018-10-19T09:31:27.197Z,85.47
2018-10-19T09:32:36.902Z,84.99
2018-10-19T09:33:46.606Z,84.52
2018-10-19T09:34:56.301Z,83.56
2018-10-19T09:36:06.460Z,83.56
2018-10-19T09:37:17.289Z,83.37
2018-10-19T09:38:27.260Z,82.51
2018-10-19T09:39:36.960Z,83.22
2018-10-19T09:40:47.280Z,82.93
2018-10-19T09:41:57.676Z,82.45
2018-10-19T09:43:08.249Z,81.97
2018-10-19T09:44:18.642Z,81.68
2018-10-19T09:45:28.606Z,82.45
2018-10-19T09:46:38.425Z,82.83
2018-10-19T09:47:48.380Z,82.07
2018-10-19T09:48:58.232Z,82.17
2018-10-19T09:50:07.851Z,82.17
2018-10-19T09:51:17.967Z,80.73
2018-10-19T09:52:27.933Z,79.81
2018-10-19T09:53:37.889Z,80
2018-10-19T09:54:47.856Z,79.43
2018-10-19T09:55:58.009Z,79.24
2018-10-19T09:57:08.395Z,78.57
2018-10-19T09:58:18.660Z,78.47
2018-10-19T09:59:28.656Z,76.75
2018-10-19T10:00:38.091Z,76.75
2018-10-19T10:01:48.064Z,75.95
2018-10-19T10:02:58.256Z,76.62
2018-10-19T10:04:08.545Z,76.23
2018-10-19T10:05:18.683Z,76.04
2018-10-19T10:06:28.645Z,76.71
2018-10-19T10:07:38.405Z,77
2018-10-19T10:08:48.484Z,75.76
2018-10-19T10:09:58.505Z,75.37
2018-10-19T10:11:08.317Z,76.1
2018-10-19T10:12:18.652Z,77.15
2018-10-19T10:13:28.347Z,77.53
2018-10-19T10:14:38.377Z,78.2
2018-10-19T10:15:48.749Z,78.01
2018-10-19T10:16:59.212Z,76.86
2018-10-19T10:18:09.222Z,77.34
2018-10-19T10:19:19.196Z,77.28
2018-10-19T10:20:28.911Z,76.14
2018-10-19T10:21:38.875Z,74.9
2018-10-19T10:22:48.863Z,74.61
2018-10-19T10:23:58.843Z,74.61
2018-10-19T10:25:08.624Z,74.16
2018-10-19T10:26:18.837Z,73.97
2018-10-19T10:27:28.827Z,73.79
2018-10-19T10:28:38.812Z,73.21
2018-10-19T10:29:48.872Z,73.11
2018-10-19T10:30:58.682Z,73.3
2018-10-19T10:32:09.081Z,72.86
2018-10-19T10:33:19.211Z,71.52
2018-10-19T10:34:28.936Z,71.81
2018-10-19T10:35:38.648Z,71.81
2018-10-19T10:36:48.624Z,71.66
2018-10-19T10:37:58.659Z,70.6
2018-10-19T10:39:08.750Z,69.26
2018-10-19T10:40:19.234Z,68.91
2018-10-19T10:41:29.510Z,67.99
2018-10-19T10:42:38.955Z,67.02
2018-10-19T10:43:49.259Z,66.86
2018-10-19T10:44:58.965Z,65.72
2018-10-19T10:46:08.710Z,65.05
2018-10-19T10:47:18.849Z,65.72
2018-10-19T10:48:28.824Z,64.66
2018-10-19T10:49:38.550Z,61.43
2018-10-19T10:50:48.266Z,57.71
2018-10-19T10:51:58.302Z,57.97
2018-10-19T10:53:08.224Z,58.45
2018-10-19T10:54:18.188Z,57.14
2018-10-19T10:55:27.874Z,55.99
2018-10-19T10:56:37.598Z,54.57
2018-10-19T10:57:47.616Z,54.38
2018-10-19T10:58:57.355Z,54.28
2018-10-19T11:00:07.342Z,54.41
2018-10-19T11:01:17.235Z,54.69
2018-10-19T11:02:27.266Z,54.6
2018-10-19T11:03:36.967Z,53.96
2018-10-19T11:04:46.422Z,53.4
2018-10-19T11:05:56.405Z,52.18
2018-10-19T11:07:06.010Z,51.24
2018-10-19T11:08:15.995Z,51.82
2018-10-19T11:09:25.755Z,51.7
2018-10-19T11:10:35.735Z,52.7
2018-10-19T11:11:45.743Z,54.41
2018-10-19T11:12:55.496Z,53.92
2018-10-19T11:14:05.677Z,51.74
2018-10-19T11:15:15.397Z,49.84
2018-10-19T11:16:25.117Z,48.06
2018-10-19T11:17:35.081Z,46.42
2018-10-19T11:18:44.804Z,47.92
2018-10-19T11:19:54.764Z,48.66
2018-10-19T11:21:04.725Z,48.85
2018-10-19T11:22:15.141Z,50.2
2018-10-19T11:23:25.416Z,52.17
2018-10-19T11:24:35.131Z,53.61
2018-10-19T11:25:44.882Z,55.12
2018-10-19T11:26:54.866Z,56.34
2018-10-19T11:28:04.980Z,56.92
2018-10-19T11:29:15.225Z,56.73
2018-10-19T11:30:25.201Z,56.24
2018-10-19T11:31:34.757Z,54
2018-10-19T11:32:44.474Z,53.23
2018-10-19T11:33:54.493Z,53.03
2018-10-19T11:35:04.626Z,53.01
2018-10-19T11:36:14.592Z,53.13
2018-10-19T11:37:24.646Z,54.06
2018-10-19T11:38:34.907Z,54.42
2018-10-19T11:39:44.362Z,54.42
2018-10-19T11:40:54.346Z,54.13
2018-10-19T11:42:04.323Z,53.08
2018-10-19T11:43:14.559Z,53.46
2018-10-19T11:44:24.773Z,51.28
2018-10-19T11:45:34.502Z,51.86
2018-10-19T11:46:44.493Z,54.16
2018-10-19T11:47:54.467Z,54.83
2018-10-19T11:49:04.502Z,54.45
2018-10-19T11:50:14.852Z,54.06
2018-10-19T11:51:24.583Z,53.52
2018-10-19T11:52:34.563Z,52.75
2018-10-19T11:53:44.527Z,51.35
2018-10-19T11:54:54.321Z,48.49
2018-10-19T11:56:04.445Z,47.19
2018-10-19T11:57:14.529Z,47.08
2018-10-19T11:58:24.705Z,48.69
2018-10-19T11:59:34.686Z,48.18
2018-10-19T12:00:44.673Z,48.66
2018-10-19T12:01:54.398Z,48.28
2018-10-19T12:03:04.083Z,46.88
2018-10-19T12:04:14.285Z,46.5
2018-10-19T12:05:24.259Z,45.94
2018-10-19T12:06:34.216Z,44.81
2018-10-19T12:07:44.168Z,43.7
2018-10-19T12:08:53.881Z,43.41
2018-10-19T12:10:04.035Z,43.31
2018-10-19T12:11:14.388Z,43.58
2018-10-19T12:12:24.382Z,43.75
2018-10-19T12:13:34.346Z,43.65
2018-10-19T12:14:44.077Z,43.58
2018-10-19T12:15:54.095Z,42.23
2018-10-19T12:17:03.991Z,41.98
2018-10-19T12:18:14.393Z,41.5
2018-10-19T12:19:24.104Z,41.88
2018-10-19T12:20:34.076Z,41.78
2018-10-19T12:21:43.983Z,41.88
2018-10-19T12:22:53.683Z,41.96
2018-10-19T12:24:03.396Z,42.73
2018-10-19T12:25:13.804Z,43.55
2018-10-19T12:26:24.180Z,44.02
2018-10-19T12:27:33.893Z,44.31
2018-10-19T12:28:43.679Z,43.37
2018-10-19T12:29:53.678Z,42.03
2018-10-19T12:31:03.828Z,41.28
2018-10-19T12:32:13.734Z,41.96
2018-10-19T12:33:23.713Z,43
2018-10-19T12:34:33.647Z,44.23
2018-10-19T12:35:43.877Z,45.07
2018-10-19T12:36:53.640Z,46.11
2018-10-19T12:38:03.763Z,46.4
2018-10-19T12:39:13.874Z,45.83
2018-10-19T12:40:24.054Z,46.47
2018-10-19T12:41:33.765Z,47.89
2018-10-19T12:42:43.473Z,47.51
2018-10-19T12:43:53.451Z,47.31
2018-10-19T12:45:03.371Z,47.77
2018-10-19T12:46:12.947Z,46.26
2018-10-19T12:47:22.608Z,45.51
2018-10-19T12:48:33.027Z,45.22
2018-10-19T12:49:42.999Z,44.19
2018-10-19T12:50:52.967Z,44.38
2018-10-19T12:52:03.061Z,43.44
2018-10-19T12:53:13.042Z,43.24
2018-10-19T12:54:22.796Z,44.48
2018-10-19T12:55:32.865Z,44.74
2018-10-19T12:56:42.852Z,44.26
2018-10-19T12:57:52.569Z,44.45
2018-10-19T12:59:02.569Z,45.32
2018-10-19T13:00:12.596Z,44.84
2018-10-19T13:01:22.570Z,44.17
2018-10-19T13:02:32.635Z,43.71
2018-10-19T13:03:42.681Z,43.71
2018-10-19T13:04:52.692Z,43.61
2018-10-19T13:06:02.703Z,44.38
2018-10-19T13:07:12.899Z,43.99
2018-10-19T13:08:23.111Z,44.49
2018-10-19T13:09:32.828Z,43.73
2018-10-19T13:10:42.796Z,43.82
2018-10-19T13:11:52.511Z,43.54
2018-10-19T13:13:02.258Z,42.21
2018-10-19T13:14:11.841Z,43.63
2018-10-19T13:15:21.296Z,43.8
2018-10-19T13:16:31.291Z,44.19
2018-10-19T13:17:41.004Z,45.22
2018-10-19T13:18:50.966Z,45.22
2018-10-19T13:20:01.023Z,45.32
2018-10-19T13:21:10.829Z,45.87
2018-10-19T13:22:21.181Z,45.2
2018-10-19T13:23:30.879Z,44.65
2018-10-19T13:24:40.336Z,44.84
2018-10-19T13:25:50.299Z,44.45
2018-10-19T13:27:00.389Z,43.44
2018-10-19T13:28:10.604Z,42.69
2018-10-19T13:29:20.322Z,42.13
2018-10-19T13:30:30.309Z,42.79
2018-10-19T13:31:40.290Z,42.59
2018-10-19T13:32:50.152Z,42.03
2018-10-19T13:34:00.165Z,41.48
2018-10-19T13:35:10.202Z,40.8
2018-10-19T13:36:20.177Z,40.7
2018-10-19T13:37:29.900Z,40.42
2018-10-19T13:38:39.872Z,40.7
2018-10-19T13:39:49.574Z,41.07
2018-10-19T13:40:59.551Z,41.17
2018-10-19T13:42:09.260Z,40.59
2018-10-19T13:43:19.245Z,40.12
2018-10-19T13:44:29.265Z,38.99
2018-10-19T13:45:39.238Z,38.35
2018-10-19T13:46:49.234Z,37.48
2018-10-19T13:47:58.732Z,36.53
2018-10-19T13:49:08.694Z,37.79
2018-10-19T13:50:18.129Z,38.89
2018-10-19T13:51:28.099Z,39.37
2018-10-19T13:52:37.810Z,39.37
2018-10-19T13:53:47.805Z,40.11
2018-10-19T13:54:57.768Z,41.34
2018-10-19T13:56:07.466Z,41.8
2018-10-19T13:57:17.404Z,42.47
2018-10-19T13:58:27.523Z,42.55
2018-10-19T13:59:37.935Z,42.55
2018-10-19T14:00:47.908Z,42.36
2018-10-19T14:01:57.881Z,42.16
2018-10-19T14:03:07.723Z,41.41
2018-10-19T14:04:18.084Z,40.47
2018-10-19T14:05:28.450Z,40.47
2018-10-19T14:06:39.745Z,39.72
2018-10-19T14:07:49.707Z,40.78
2018-10-19T14:08:59.721Z,41.71
2018-10-19T14:10:09.937Z,41.89
2018-10-19T14:11:19.727Z,41.89
2018-10-19T14:12:29.449Z,41.51
2018-10-19T14:13:39.411Z,41.8
2018-10-19T14:14:49.362Z,41.8
2018-10-19T14:15:59.389Z,41.89
2018-10-19T14:17:08.988Z,41.89
2018-10-19T14:18:19.310Z,40.76
2018-10-19T14:19:29.286Z,39.53
2018-10-19T14:20:39.259Z,39.04
2018-10-19T14:21:48.972Z,38.78
2018-10-19T14:22:59.015Z,39.82
2018-10-19T14:24:09.371Z,39.43
2018-10-19T14:25:19.331Z,39.62
2018-10-19T14:26:28.819Z,39.72
2018-10-19T14:27:38.633Z,39.24
2018-10-19T14:28:48.601Z,38.95
2018-10-19T14:29:58.383Z,39.16
2018-10-19T14:31:08.353Z,39.06
2018-10-19T14:32:18.301Z,39.06
2018-10-19T14:33:28.745Z,40.2
2018-10-19T14:34:39.435Z,40.19
2018-10-19T14:35:49.385Z,40.28
2018-10-19T14:36:59.344Z,40.28
2018-10-19T14:38:09.308Z,40.01
2018-10-19T14:39:18.936Z,40.09
2018-10-19T14:40:28.647Z,39.91
2018-10-19T14:41:38.074Z,40.28
2018-10-19T14:42:48.031Z,40.47
2018-10-19T14:43:57.502Z,40.37
2018-10-19T14:45:07.549Z,40.19
2018-10-19T14:46:17.947Z,39.62
2018-10-19T14:47:27.925Z,40.2
2018-10-19T14:48:37.886Z,40.3
2018-10-19T14:49:47.633Z,39.82
2018-10-19T14:50:57.630Z,39.62
2018-10-19T14:52:07.842Z,40.11
2018-10-19T14:53:17.668Z,40.28
2018-10-19T14:54:27.839Z,40.37
2018-10-19T14:55:38.143Z,40.19
2018-10-19T14:56:48.105Z,39.62
2018-10-19T14:57:58.106Z,39.06
2018-10-19T14:59:07.880Z,39.16
2018-10-19T15:00:17.920Z,38.97
2018-10-19T15:01:27.883Z,40.59
2018-10-19T15:02:37.865Z,41.89